sensor_id;sensor_type;location;lat;lon;timestamp;pressure;altitude;pressure_sealevel;temperature;humidity
71107;BME280;58763;47.982;11.516;2023-03-19T00:01:26;93790.78;;;9.33;64.16
71107;BME280;58763;47.982;11.516;2023-03-19T00:03:52;93789.75;;;9.29;64.50
71107;BME280;58763;47.982;11.516;2023-03-19T00:06:18;93794.84;;;9.30;64.29
71107;BME280;58763;47.982;11.516;2023-03-19T00:08:44;93796.19;;;9.33;64.58
71107;BME280;58763;47.982;11.516;2023-03-19T00:11:11;93797.19;;;9.37;64.66
71107;BME280;58763;47.982;11.516;2023-03-19T00:13:38;93793.94;;;9.40;64.46
71107;BME280;58763;47.982;11.516;2023-03-19T00:16:05;93805.28;;;9.37;64.01
71107;BME280;58763;47.982;11.516;2023-03-19T00:18:31;93790.25;;;9.31;64.10
71107;BME280;58763;47.982;11.516;2023-03-19T00:20:57;93803.28;;;9.24;64.50
71107;BME280;58763;47.982;11.516;2023-03-19T00:23:22;93802.19;;;9.25;64.45
71107;BME280;58763;47.982;11.516;2023-03-19T00:25:48;93791.69;;;9.23;64.53
71107;BME280;58763;47.982;11.516;2023-03-19T00:28:13;93802.19;;;9.25;64.73
71107;BME280;58763;47.982;11.516;2023-03-19T00:30:39;93796.78;;;9.25;64.12
71107;BME280;58763;47.982;11.516;2023-03-19T00:33:05;93802.69;;;9.27;64.39
71107;BME280;58763;47.982;11.516;2023-03-19T00:35:31;93808.75;;;9.19;64.34
71107;BME280;58763;47.982;11.516;2023-03-19T00:37:57;93812.75;;;9.21;65.04
71107;BME280;58763;47.982;11.516;2023-03-19T00:40:23;93812.84;;;9.11;65.18
71107;BME280;58763;47.982;11.516;2023-03-19T00:42:48;93817.56;;;9.00;64.95
71107;BME280;58763;47.982;11.516;2023-03-19T00:45:14;93813.84;;;8.91;65.17
71107;BME280;58763;47.982;11.516;2023-03-19T00:47:39;93817.22;;;8.78;66.13
71107;BME280;58763;47.982;11.516;2023-03-19T00:50:05;93811.69;;;8.60;67.18
71107;BME280;58763;47.982;11.516;2023-03-19T00:52:31;93808.81;;;8.51;67.76
71107;BME280;58763;47.982;11.516;2023-03-19T00:54:56;93815.63;;;8.39;68.13
71107;BME280;58763;47.982;11.516;2023-03-19T00:57:22;93812.13;;;8.38;67.79
71107;BME280;58763;47.982;11.516;2023-03-19T00:59:47;93816.47;;;8.34;67.86
71107;BME280;58763;47.982;11.516;2023-03-19T01:02:13;93810.72;;;8.07;69.55
71107;BME280;58763;47.982;11.516;2023-03-19T01:04:39;93807.84;;;7.93;69.78
71107;BME280;58763;47.982;11.516;2023-03-19T01:07:04;93817.88;;;7.73;70.96
71107;BME280;58763;47.982;11.516;2023-03-19T01:09:30;93815.81;;;7.59;71.51
71107;BME280;58763;47.982;11.516;2023-03-19T01:11:55;93810.94;;;7.61;71.30
71107;BME280;58763;47.982;11.516;2023-03-19T01:14:21;93804.53;;;7.47;71.67
71107;BME280;58763;47.982;11.516;2023-03-19T01:16:46;93816.94;;;7.43;71.75
71107;BME280;58763;47.982;11.516;2023-03-19T01:19:12;93814.25;;;7.43;71.88
71107;BME280;58763;47.982;11.516;2023-03-19T01:21:38;93817.75;;;7.44;71.44
71107;BME280;58763;47.982;11.516;2023-03-19T01:24:04;93805.75;;;7.16;72.77
71107;BME280;58763;47.982;11.516;2023-03-19T01:26:29;93810.84;;;7.23;72.50
71107;BME280;58763;47.982;11.516;2023-03-19T01:28:56;93814.88;;;7.15;72.82
71107;BME280;58763;47.982;11.516;2023-03-19T01:31:22;93818.94;;;7.08;73.24
71107;BME280;58763;47.982;11.516;2023-03-19T01:33:47;93806.81;;;7.15;73.02
71107;BME280;58763;47.982;11.516;2023-03-19T01:36:13;93815.94;;;7.24;72.67
71107;BME280;58763;47.982;11.516;2023-03-19T01:38:38;93814.34;;;7.23;72.89
71107;BME280;58763;47.982;11.516;2023-03-19T01:41:04;93816.53;;;6.96;74.19
71107;BME280;58763;47.982;11.516;2023-03-19T01:43:30;93822.19;;;6.94;74.13
71107;BME280;58763;47.982;11.516;2023-03-19T01:48:54;93811.19;;;6.81;75.55
71107;BME280;58763;47.982;11.516;2023-03-19T01:51:26;93812.53;;;6.68;75.91
71107;BME280;58763;47.982;11.516;2023-03-19T01:53:56;93821.69;;;6.62;76.28
71107;BME280;58763;47.982;11.516;2023-03-19T01:56:27;93813.91;;;6.51;76.78
71107;BME280;58763;47.982;11.516;2023-03-19T01:58:59;93813.91;;;6.51;76.89
71107;BME280;58763;47.982;11.516;2023-03-19T02:01:26;93821.69;;;6.37;76.92
71107;BME280;58763;47.982;11.516;2023-03-19T02:03:52;93833.25;;;6.48;76.65
71107;BME280;58763;47.982;11.516;2023-03-19T02:06:19;93822.50;;;6.48;76.70
71107;BME280;58763;47.982;11.516;2023-03-19T02:08:46;93825.47;;;6.46;76.71
71107;BME280;58763;47.982;11.516;2023-03-19T02:11:13;93816.03;;;6.54;76.35
71107;BME280;58763;47.982;11.516;2023-03-19T02:13:38;93809.84;;;6.58;76.10
71107;BME280;58763;47.982;11.516;2023-03-19T02:16:04;93809.63;;;6.60;76.12
71107;BME280;58763;47.982;11.516;2023-03-19T02:18:29;93809.06;;;6.38;76.60
71107;BME280;58763;47.982;11.516;2023-03-19T02:21:03;93810.94;;;6.37;75.88
71107;BME280;58763;47.982;11.516;2023-03-19T02:23:38;93814.19;;;6.34;76.37
71107;BME280;58763;47.982;11.516;2023-03-19T02:26:10;93820.34;;;6.30;76.54
71107;BME280;58763;47.982;11.516;2023-03-19T02:28:41;93817.66;;;6.40;76.57
71107;BME280;58763;47.982;11.516;2023-03-19T02:31:08;93814.97;;;6.40;76.84
71107;BME280;58763;47.982;11.516;2023-03-19T02:33:34;93816.31;;;6.47;76.87
71107;BME280;58763;47.982;11.516;2023-03-19T02:36:01;93823.84;;;6.55;76.47
71107;BME280;58763;47.982;11.516;2023-03-19T02:38:29;93825.19;;;6.43;76.78
71107;BME280;58763;47.982;11.516;2023-03-19T02:41:04;93820.88;;;6.57;76.29
71107;BME280;58763;47.982;11.516;2023-03-19T02:43:32;93828.41;;;6.55;76.16
71107;BME280;58763;47.982;11.516;2023-03-19T02:45:59;93823.84;;;6.45;76.63
71107;BME280;58763;47.982;11.516;2023-03-19T02:48:25;93825.19;;;6.43;76.60
71107;BME280;58763;47.982;11.516;2023-03-19T02:50:51;93830.53;;;6.38;77.10
71107;BME280;58763;47.982;11.516;2023-03-19T02:53:16;93833.50;;;6.26;77.80
71107;BME280;58763;47.982;11.516;2023-03-19T02:55:42;93845.03;;;6.26;77.66
71107;BME280;58763;47.982;11.516;2023-03-19T02:58:07;93849.34;;;6.28;77.53
71107;BME280;58763;47.982;11.516;2023-03-19T03:00:33;93845.84;;;6.22;77.19
71107;BME280;58763;47.982;11.516;2023-03-19T03:02:58;93850.94;;;6.28;78.35
71107;BME280;58763;47.982;11.516;2023-03-19T03:05:25;93847.44;;;6.28;78.16
71107;BME280;58763;47.982;11.516;2023-03-19T03:07:50;93854.19;;;6.20;78.49
71107;BME280;58763;47.982;11.516;2023-03-19T03:10:16;93853.63;;;6.23;78.35
71107;BME280;58763;47.982;11.516;2023-03-19T03:12:42;93845.06;;;6.32;78.07
71107;BME280;58763;47.982;11.516;2023-03-19T03:15:08;93857.69;;;6.36;77.90
71107;BME280;58763;47.982;11.516;2023-03-19T03:17:38;93849.06;;;6.29;78.05
71107;BME280;58763;47.982;11.516;2023-03-19T03:20:05;93853.13;;;6.37;77.88
71107;BME280;58763;47.982;11.516;2023-03-19T03:22:31;93842.09;;;6.43;77.58
71107;BME280;58763;47.982;11.516;2023-03-19T03:24:57;93851.75;;;6.44;77.40
71107;BME280;58763;47.982;11.516;2023-03-19T03:27:22;93860.09;;;6.48;77.09
71107;BME280;58763;47.982;11.516;2023-03-19T03:29:48;93864.41;;;6.44;77.08
71107;BME280;58763;47.982;11.516;2023-03-19T03:32:13;93859.03;;;6.44;77.11
71107;BME280;58763;47.982;11.516;2023-03-19T03:34:39;93856.88;;;6.36;77.64
71107;BME280;58763;47.982;11.516;2023-03-19T03:37:05;93873.50;;;6.38;77.66
71107;BME280;58763;47.982;11.516;2023-03-19T03:39:31;93865.19;;;6.29;77.26
71107;BME280;58763;47.982;11.516;2023-03-19T03:41:56;93860.09;;;6.38;77.48
71107;BME280;58763;47.982;11.516;2023-03-19T03:44:21;93862.78;;;6.38;77.47
71107;BME280;58763;47.982;11.516;2023-03-19T03:46:47;93866.56;;;6.42;77.37
71107;BME280;58763;47.982;11.516;2023-03-19T03:49:13;93872.69;;;6.37;77.39
71107;BME280;58763;47.982;11.516;2023-03-19T03:51:39;93868.13;;;6.33;77.73
71107;BME280;58763;47.982;11.516;2023-03-19T03:54:05;93875.41;;;6.32;77.45
71107;BME280;58763;47.982;11.516;2023-03-19T03:56:31;93879.44;;;6.30;77.58
71107;BME280;58763;47.982;11.516;2023-03-19T03:58:57;93882.13;;;6.35;77.33
71107;BME280;58763;47.982;11.516;2023-03-19T04:01:23;93882.38;;;6.23;78.24
71107;BME280;58763;47.982;11.516;2023-03-19T04:03:48;93883.69;;;6.25;77.95
71107;BME280;58763;47.982;11.516;2023-03-19T04:06:16;93883.16;;;6.23;77.89
71107;BME280;58763;47.982;11.516;2023-03-19T04:08:42;93879.66;;;6.28;77.70
71107;BME280;58763;47.982;11.516;2023-03-19T04:11:08;93878.63;;;6.39;76.84
71107;BME280;58763;47.982;11.516;2023-03-19T04:13:34;93877.00;;;6.38;76.88
71107;BME280;58763;47.982;11.516;2023-03-19T04:16:05;93885.59;;;6.35;76.68
71107;BME280;58763;47.982;11.516;2023-03-19T04:18:31;93889.09;;;6.36;76.94
71107;BME280;58763;47.982;11.516;2023-03-19T04:20:56;93890.16;;;6.30;77.31
71107;BME280;58763;47.982;11.516;2023-03-19T04:23:23;93885.06;;;6.33;77.19
71107;BME280;58763;47.982;11.516;2023-03-19T04:25:48;93894.47;;;6.46;77.09
71107;BME280;58763;47.982;11.516;2023-03-19T04:28:14;93887.22;;;6.41;77.12
71107;BME280;58763;47.982;11.516;2023-03-19T04:30:40;93893.41;;;6.37;77.38
71107;BME280;58763;47.982;11.516;2023-03-19T04:33:07;93890.72;;;6.37;77.14
71107;BME280;58763;47.982;11.516;2023-03-19T04:35:33;93892.31;;;6.43;77.13
71107;BME280;58763;47.982;11.516;2023-03-19T04:37:59;93899.03;;;6.45;76.82
71107;BME280;58763;47.982;11.516;2023-03-19T04:40:24;93898.78;;;6.52;76.87
71107;BME280;58763;47.982;11.516;2023-03-19T04:42:49;93893.16;;;6.48;76.57
71107;BME280;58763;47.982;11.516;2023-03-19T04:45:15;93899.06;;;6.60;76.78
71107;BME280;58763;47.982;11.516;2023-03-19T04:47:40;93909.56;;;6.72;75.82
71107;BME280;58763;47.982;11.516;2023-03-19T04:50:07;93906.59;;;6.73;75.71
71107;BME280;58763;47.982;11.516;2023-03-19T04:52:33;93915.19;;;6.75;75.86
71107;BME280;58763;47.982;11.516;2023-03-19T04:54:59;93904.69;;;6.59;75.90
71107;BME280;58763;47.982;11.516;2023-03-19T04:57:24;93907.38;;;6.54;75.97
71107;BME280;58763;47.982;11.516;2023-03-19T04:59:50;93910.06;;;6.64;75.77
71107;BME280;58763;47.982;11.516;2023-03-19T05:02:15;93914.63;;;6.58;75.60
71107;BME280;58763;47.982;11.516;2023-03-19T05:04:41;93917.34;;;6.53;75.96
71107;BME280;58763;47.982;11.516;2023-03-19T05:07:06;93916.50;;;6.53;75.60
71107;BME280;58763;47.982;11.516;2023-03-19T05:09:32;93922.41;;;6.45;75.84
71107;BME280;58763;47.982;11.516;2023-03-19T05:11:57;93926.38;;;6.22;76.83
71107;BME280;58763;47.982;11.516;2023-03-19T05:14:23;93929.06;;;6.17;77.36
71107;BME280;58763;47.982;11.516;2023-03-19T05:16:49;93926.09;;;6.08;78.11
71107;BME280;58763;47.982;11.516;2023-03-19T05:19:14;93933.81;;;6.00;78.50
71107;BME280;58763;47.982;11.516;2023-03-19T05:21:40;93930.09;;;6.06;78.46
71107;BME280;58763;47.982;11.516;2023-03-19T05:24:07;93938.97;;;6.11;78.22
71107;BME280;58763;47.982;11.516;2023-03-19T05:26:32;93940.06;;;6.15;77.75
71107;BME280;58763;47.982;11.516;2023-03-19T05:28:58;93947.34;;;6.25;77.88
71107;BME280;58763;47.982;11.516;2023-03-19T05:31:23;93950.28;;;6.23;77.64
71107;BME280;58763;47.982;11.516;2023-03-19T05:33:49;93955.69;;;6.34;77.69
71107;BME280;58763;47.982;11.516;2023-03-19T05:36:14;93960.22;;;6.28;78.16
71107;BME280;58763;47.982;11.516;2023-03-19T05:38:40;93964.56;;;6.34;77.73
71107;BME280;58763;47.982;11.516;2023-03-19T05:41:06;93968.63;;;6.52;77.21
71107;BME280;58763;47.982;11.516;2023-03-19T05:43:31;93966.78;;;6.62;76.37
71107;BME280;58763;47.982;11.516;2023-03-19T05:45:57;93972.97;;;6.78;75.85
71107;BME280;58763;47.982;11.516;2023-03-19T05:48:23;93970.81;;;6.90;75.52
71107;BME280;58763;47.982;11.516;2023-03-19T05:50:50;93976.22;;;6.95;74.95
71107;BME280;58763;47.982;11.516;2023-03-19T05:53:15;93975.13;;;7.06;74.85
71107;BME280;58763;47.982;11.516;2023-03-19T05:55:41;93986.44;;;7.23;73.87
71107;BME280;58763;47.982;11.516;2023-03-19T05:58:07;93991.25;;;7.36;73.61
71107;BME280;58763;47.982;11.516;2023-03-19T06:00:32;93997.44;;;7.32;73.49
71107;BME280;58763;47.982;11.516;2023-03-19T06:02:58;93998.78;;;7.29;73.72
71107;BME280;58763;47.982;11.516;2023-03-19T06:05:23;94000.97;;;7.32;73.71
71107;BME280;58763;47.982;11.516;2023-03-19T06:07:49;94010.63;;;7.28;74.47
71107;BME280;58763;47.982;11.516;2023-03-19T06:10:14;94015.75;;;7.30;74.75
71107;BME280;58763;47.982;11.516;2023-03-19T06:12:40;94017.63;;;7.34;74.04
71107;BME280;58763;47.982;11.516;2023-03-19T06:15:06;94010.09;;;7.36;74.47
71107;BME280;58763;47.982;11.516;2023-03-19T06:17:33;94014.66;;;7.31;74.93
71107;BME280;58763;47.982;11.516;2023-03-19T06:19:59;94027.81;;;7.42;74.08
71107;BME280;58763;47.982;11.516;2023-03-19T06:22:25;94021.63;;;7.52;73.26
71107;BME280;58763;47.982;11.516;2023-03-19T06:24:51;94041.28;;;7.47;73.19
71107;BME280;58763;47.982;11.516;2023-03-19T06:27:17;94038.34;;;7.49;73.54
71107;BME280;58763;47.982;11.516;2023-03-19T06:29:42;94048.25;;;7.63;73.53
71107;BME280;58763;47.982;11.516;2023-03-19T06:32:08;94049.09;;;7.64;73.38
71107;BME280;58763;47.982;11.516;2023-03-19T06:34:34;94056.63;;;7.67;73.00
71107;BME280;58763;47.982;11.516;2023-03-19T06:37:00;94053.13;;;7.72;73.72
71107;BME280;58763;47.982;11.516;2023-03-19T06:39:26;94070.88;;;7.73;73.96
71107;BME280;58763;47.982;11.516;2023-03-19T06:41:52;94059.03;;;7.74;74.36
71107;BME280;58763;47.982;11.516;2023-03-19T06:44:17;94066.00;;;7.80;74.21
71107;BME280;58763;47.982;11.516;2023-03-19T06:46:43;94055.78;;;7.92;73.60
71107;BME280;58763;47.982;11.516;2023-03-19T06:49:09;94067.06;;;8.04;73.40
71107;BME280;58763;47.982;11.516;2023-03-19T06:51:35;94067.34;;;7.97;73.27
71107;BME280;58763;47.982;11.516;2023-03-19T06:54:00;94068.69;;;8.05;73.50
71107;BME280;58763;47.982;11.516;2023-03-19T06:56:26;94080.25;;;8.05;73.88
71107;BME280;58763;47.982;11.516;2023-03-19T06:58:52;94085.63;;;8.15;73.16
71107;BME280;58763;47.982;11.516;2023-03-19T07:01:17;94090.72;;;8.17;72.89
71107;BME280;58763;47.982;11.516;2023-03-19T07:03:43;94095.34;;;8.11;72.86
71107;BME280;58763;47.982;11.516;2023-03-19T07:06:08;94103.41;;;8.16;74.23
71107;BME280;58763;47.982;11.516;2023-03-19T07:08:34;94114.44;;;8.10;74.34
71107;BME280;58763;47.982;11.516;2023-03-19T07:11:06;94121.44;;;8.21;73.57
71107;BME280;58763;47.982;11.516;2023-03-19T07:13:32;94116.06;;;8.16;74.16
71107;BME280;58763;47.982;11.516;2023-03-19T07:16:01;94121.44;;;8.21;74.53
71107;BME280;58763;47.982;11.516;2023-03-19T07:18:31;94122.78;;;8.18;75.42
71107;BME280;58763;47.982;11.516;2023-03-19T07:20:57;94131.16;;;8.32;74.67
71107;BME280;58763;47.982;11.516;2023-03-19T07:23:22;94133.25;;;8.45;74.53
71107;BME280;58763;47.982;11.516;2023-03-19T07:25:48;94135.41;;;8.48;74.79
71107;BME280;58763;47.982;11.516;2023-03-19T07:28:13;94148.91;;;8.43;74.36
71107;BME280;58763;47.982;11.516;2023-03-19T07:30:39;94152.69;;;8.42;75.11
71107;BME280;58763;47.982;11.516;2023-03-19T07:33:05;94159.41;;;8.45;74.67
71107;BME280;58763;47.982;11.516;2023-03-19T07:35:32;94154.03;;;8.40;75.49
71107;BME280;58763;47.982;11.516;2023-03-19T07:37:57;94152.41;;;8.49;75.63
71107;BME280;58763;47.982;11.516;2023-03-19T07:40:24;94147.25;;;8.52;75.81
71107;BME280;58763;47.982;11.516;2023-03-19T07:42:49;94149.41;;;8.55;75.18
71107;BME280;58763;47.982;11.516;2023-03-19T07:45:15;94146.72;;;8.50;76.46
71107;BME280;58763;47.982;11.516;2023-03-19T07:47:41;94139.47;;;8.46;76.21
71107;BME280;58763;47.982;11.516;2023-03-19T07:50:06;94155.38;;;8.37;76.61
71107;BME280;58763;47.982;11.516;2023-03-19T07:52:32;94152.41;;;8.49;76.62
71107;BME280;58763;47.982;11.516;2023-03-19T07:54:57;94154.25;;;8.63;76.68
71107;BME280;58763;47.982;11.516;2023-03-19T07:57:23;94159.06;;;8.76;76.17
71107;BME280;58763;47.982;11.516;2023-03-19T07:59:50;94147.75;;;8.74;76.45
71107;BME280;58763;47.982;11.516;2023-03-19T08:02:16;94159.06;;;8.71;77.06
71107;BME280;58763;47.982;11.516;2023-03-19T08:04:42;94147.53;;;8.61;77.23
71107;BME280;58763;47.982;11.516;2023-03-19T08:07:08;94153.44;;;8.68;77.30
71107;BME280;58763;47.982;11.516;2023-03-19T08:09:35;94156.91;;;8.68;77.23
71107;BME280;58763;47.982;11.516;2023-03-19T08:12:02;94157.41;;;8.85;76.52
71107;BME280;58763;47.982;11.516;2023-03-19T08:14:27;94154.09;;;9.03;75.90
71107;BME280;58763;47.982;11.516;2023-03-19T08:16:52;94147.88;;;9.08;75.41
71107;BME280;58763;47.982;11.516;2023-03-19T08:19:18;94147.00;;;9.18;75.01
71107;BME280;58763;47.982;11.516;2023-03-19T08:21:43;94142.94;;;9.25;75.40
71107;BME280;58763;47.982;11.516;2023-03-19T08:24:09;94142.06;;;9.35;75.13
71107;BME280;58763;47.982;11.516;2023-03-19T08:26:35;94146.31;;;9.46;74.64
71107;BME280;58763;47.982;11.516;2023-03-19T08:29:02;94139.03;;;9.46;74.24
71107;BME280;58763;47.982;11.516;2023-03-19T08:31:28;94158.44;;;9.53;74.16
71107;BME280;58763;47.982;11.516;2023-03-19T08:33:54;94144.59;;;9.65;73.75
71107;BME280;58763;47.982;11.516;2023-03-19T08:36:20;94154.25;;;9.71;73.91
71107;BME280;58763;47.982;11.516;2023-03-19T08:38:45;94154.84;;;9.63;73.72
71107;BME280;58763;47.982;11.516;2023-03-19T08:41:11;94158.72;;;9.52;73.88
71107;BME280;58763;47.982;11.516;2023-03-19T08:43:37;94162.81;;;9.44;73.97
71107;BME280;58763;47.982;11.516;2023-03-19T08:46:03;94159.47;;;9.57;73.69
71107;BME280;58763;47.982;11.516;2023-03-19T08:48:29;94173.25;;;9.56;74.43
71107;BME280;58763;47.982;11.516;2023-03-19T08:51:00;94165.16;;;9.56;73.55
71107;BME280;58763;47.982;11.516;2023-03-19T08:53:27;94173.72;;;9.68;73.43
71107;BME280;58763;47.982;11.516;2023-03-19T08:55:54;94169.06;;;9.79;73.58
71107;BME280;58763;47.982;11.516;2023-03-19T08:58:20;94163.66;;;9.79;72.93
71107;BME280;58763;47.982;11.516;2023-03-19T09:00:46;94172.50;;;9.89;73.01
71107;BME280;58763;47.982;11.516;2023-03-19T09:03:12;94171.69;;;9.89;72.17
71107;BME280;58763;47.982;11.516;2023-03-19T09:05:38;94186.00;;;9.89;72.40
71107;BME280;58763;47.982;11.516;2023-03-19T09:08:04;94178.31;;;9.67;73.47
71107;BME280;58763;47.982;11.516;2023-03-19T09:10:30;94186.06;;;9.79;73.11
71107;BME280;58763;47.982;11.516;2023-03-19T09:12:56;94186.06;;;9.79;73.21
71107;BME280;58763;47.982;11.516;2023-03-19T09:15:22;94186.88;;;9.80;73.12
71107;BME280;58763;47.982;11.516;2023-03-19T09:17:47;94184.59;;;9.53;74.45
71107;BME280;58763;47.982;11.516;2023-03-19T09:20:13;94187.25;;;9.63;74.13
71107;BME280;58763;47.982;11.516;2023-03-19T09:22:38;94187.75;;;9.70;73.87
71107;BME280;58763;47.982;11.516;2023-03-19T09:25:05;94179.31;;;9.82;73.06
71107;BME280;58763;47.982;11.516;2023-03-19T09:27:31;94189.50;;;9.90;72.75
71107;BME280;58763;47.982;11.516;2023-03-19T09:29:56;94191.97;;;9.86;73.02
71107;BME280;58763;47.982;11.516;2023-03-19T09:32:22;94195.22;;;9.83;73.30
71107;BME280;58763;47.982;11.516;2023-03-19T09:34:47;94187.94;;;9.84;73.36
71107;BME280;58763;47.982;11.516;2023-03-19T09:37:13;94193.50;;;9.58;74.36
71107;BME280;58763;47.982;11.516;2023-03-19T09:39:38;94196.50;;;9.52;74.91
71107;BME280;58763;47.982;11.516;2023-03-19T09:42:29;94201.00;;;9.61;74.11
71107;BME280;58763;47.982;11.516;2023-03-19T09:44:59;94206.84;;;9.79;73.62
71107;BME280;58763;47.982;11.516;2023-03-19T09:47:31;94213.88;;;9.85;73.19
71107;BME280;58763;47.982;11.516;2023-03-19T09:49:59;94210.84;;;9.91;72.29
71107;BME280;58763;47.982;11.516;2023-03-19T09:52:48;94217.34;;;9.85;71.66
71107;BME280;58763;47.982;11.516;2023-03-19T09:57:49;94212.44;;;9.92;72.27
71107;BME280;58763;47.982;11.516;2023-03-19T10:00:25;94206.94;;;10.07;71.83
71107;BME280;58763;47.982;11.516;2023-03-19T10:16:54;94188.00;;;10.17;70.74
71107;BME280;58763;47.982;11.516;2023-03-19T10:19:32;94183.38;;;10.18;69.38
71107;BME280;58763;47.982;11.516;2023-03-19T10:22:07;94183.69;;;10.11;69.76
71107;BME280;58763;47.982;11.516;2023-03-19T10:24:39;94189.69;;;10.03;69.50
71107;BME280;58763;47.982;11.516;2023-03-19T10:27:14;94184.47;;;10.17;69.42
71107;BME280;58763;47.982;11.516;2023-03-19T10:29:40;94182.47;;;10.27;68.40
71107;BME280;58763;47.982;11.516;2023-03-19T10:32:12;94186.19;;;10.36;68.22
71107;BME280;58763;47.982;11.516;2023-03-19T10:34:45;94192.66;;;10.40;67.61
71107;BME280;58763;47.982;11.516;2023-03-19T10:37:23;94191.03;;;10.39;67.22
71107;BME280;58763;47.982;11.516;2023-03-19T10:39:54;94202.13;;;10.38;67.94
71107;BME280;58763;47.982;11.516;2023-03-19T10:45:28;94188.28;;;10.45;67.35
71107;BME280;58763;47.982;11.516;2023-03-19T10:47:59;94184.34;;;10.61;67.75
71107;BME280;58763;47.982;11.516;2023-03-19T10:50:42;94184.78;;;10.73;67.06
71107;BME280;58763;47.982;11.516;2023-03-19T10:55:38;94183.41;;;10.99;66.30
71107;BME280;58763;47.982;11.516;2023-03-19T10:58:17;94183.16;;;11.19;64.96
71107;BME280;58763;47.982;11.516;2023-03-19T11:00:48;94174.63;;;11.31;64.55
71107;BME280;58763;47.982;11.516;2023-03-19T11:08:28;94168.09;;;11.74;62.92
71107;BME280;58763;47.982;11.516;2023-03-19T11:10:53;94170.38;;;11.86;63.13
71107;BME280;58763;47.982;11.516;2023-03-19T11:13:24;94160.78;;;11.93;61.26
71107;BME280;58763;47.982;11.516;2023-03-19T11:15:51;94160.34;;;12.05;61.84
71107;BME280;58763;47.982;11.516;2023-03-19T11:18:21;94167.56;;;12.28;60.97
71107;BME280;58763;47.982;11.516;2023-03-19T11:20:58;94160.59;;;12.54;60.45
71107;BME280;58763;47.982;11.516;2023-03-19T11:23:37;94169.88;;;12.53;58.70
71107;BME280;58763;47.982;11.516;2023-03-19T11:26:03;94179.34;;;12.69;60.71
71107;BME280;58763;47.982;11.516;2023-03-19T11:28:29;94163.66;;;12.80;59.22
71107;BME280;58763;47.982;11.516;2023-03-19T11:31:09;94160.47;;;12.91;59.37
71107;BME280;58763;47.982;11.516;2023-03-19T11:39:02;94146.66;;;13.20;56.63
71107;BME280;58763;47.982;11.516;2023-03-19T11:47:03;94138.97;;;13.36;56.28
71107;BME280;58763;47.982;11.516;2023-03-19T11:52:19;94129.44;;;13.38;55.29
71107;BME280;58763;47.982;11.516;2023-03-19T11:55:09;94135.78;;;13.34;54.91
71107;BME280;58763;47.982;11.516;2023-03-19T12:00:46;94128.34;;;13.39;55.56
71107;BME280;58763;47.982;11.516;2023-03-19T12:03:54;94118.75;;;13.55;54.62
71107;BME280;58763;47.982;11.516;2023-03-19T12:06:39;94113.97;;;13.61;53.28
71107;BME280;58763;47.982;11.516;2023-03-19T12:09:40;94105.94;;;13.69;53.28
71107;BME280;58763;47.982;11.516;2023-03-19T12:12:21;94099.31;;;13.84;53.12
71107;BME280;58763;47.982;11.516;2023-03-19T12:15:02;94108.19;;;14.12;52.95
71107;BME280;58763;47.982;11.516;2023-03-19T12:20:16;94105.25;;;14.44;53.33
71107;BME280;58763;47.982;11.516;2023-03-19T12:23:04;94105.28;;;14.52;52.86
71107;BME280;58763;47.982;11.516;2023-03-19T12:36:44;94094.28;;;14.97;50.43
71107;BME280;58763;47.982;11.516;2023-03-19T12:39:25;94073.84;;;15.16;49.66
71107;BME280;58763;47.982;11.516;2023-03-19T12:41:55;94090.81;;;15.13;49.20
71107;BME280;58763;47.982;11.516;2023-03-19T12:47:09;94082.31;;;15.15;49.75
71107;BME280;58763;47.982;11.516;2023-03-19T12:49:45;94067.25;;;15.09;49.69
71107;BME280;58763;47.982;11.516;2023-03-19T12:52:30;94075.28;;;15.14;49.71
71107;BME280;58763;47.982;11.516;2023-03-19T12:55:07;94076.53;;;15.08;50.70
71107;BME280;58763;47.982;11.516;2023-03-19T12:57:59;94078.44;;;14.99;49.52
71107;BME280;58763;47.982;11.516;2023-03-19T13:06:37;94065.56;;;15.30;47.51
71107;BME280;58763;47.982;11.516;2023-03-19T13:09:37;94064.41;;;15.31;47.24
71107;BME280;58763;47.982;11.516;2023-03-19T13:12:25;94057.78;;;15.63;46.54
71107;BME280;58763;47.982;11.516;2023-03-19T13:15:04;94063.22;;;15.71;46.67
71107;BME280;58763;47.982;11.516;2023-03-19T13:17:40;94060.97;;;15.73;46.61
71107;BME280;58763;47.982;11.516;2023-03-19T13:23:14;94062.56;;;15.57;47.15
71107;BME280;58763;47.982;11.516;2023-03-19T13:25:44;94052.47;;;15.49;47.18
71107;BME280;58763;47.982;11.516;2023-03-19T13:28:17;94057.88;;;15.32;47.05
71107;BME280;58763;47.982;11.516;2023-03-19T13:31:20;94052.75;;;15.39;46.73
71107;BME280;58763;47.982;11.516;2023-03-19T13:36:44;94051.50;;;15.45;47.28
71107;BME280;58763;47.982;11.516;2023-03-19T13:39:15;94053.75;;;15.60;45.60
71107;BME280;58763;47.982;11.516;2023-03-19T13:44:39;94046.34;;;15.35;47.25
71107;BME280;58763;47.982;11.516;2023-03-19T13:47:41;94045.38;;;15.40;47.06
71107;BME280;58763;47.982;11.516;2023-03-19T13:57:58;94041.03;;;15.30;45.84
71107;BME280;58763;47.982;11.516;2023-03-19T14:03:34;94031.22;;;15.12;46.04
71107;BME280;58763;47.982;11.516;2023-03-19T14:06:00;94031.06;;;15.17;46.70
71107;BME280;58763;47.982;11.516;2023-03-19T14:08:47;94037.50;;;15.21;45.94
71107;BME280;58763;47.982;11.516;2023-03-19T14:11:21;94032.38;;;15.28;45.49
71107;BME280;58763;47.982;11.516;2023-03-19T14:13:48;94027.56;;;15.25;46.63
71107;BME280;58763;47.982;11.516;2023-03-19T14:16:23;94033.41;;;15.49;45.59
71107;BME280;58763;47.982;11.516;2023-03-19T14:18:55;94031.31;;;15.55;45.75
71107;BME280;58763;47.982;11.516;2023-03-19T14:21:39;94030.03;;;15.61;45.71
71107;BME280;58763;47.982;11.516;2023-03-19T14:26:49;94027.63;;;15.76;44.71
71107;BME280;58763;47.982;11.516;2023-03-19T14:29:15;94025.88;;;15.89;45.28
71107;BME280;58763;47.982;11.516;2023-03-19T14:31:48;94020.53;;;16.01;44.87
71107;BME280;58763;47.982;11.516;2023-03-19T14:34:33;94016.03;;;16.14;44.73
71107;BME280;58763;47.982;11.516;2023-03-19T14:37:18;94009.28;;;16.28;44.63